Time;durP1;ratioP1;P1;durP2;ratioP2;P2;SDS_P1;SDS_P2;PMS_P1;PMS_P2;Temp;Humidity;BMP_temperature;BMP_pressure;BME280_temperature;BME280_humidity;BME280_pressure;Samples;Min_cycle;Max_cycle;Signal;HPM_P1;HPM_P2
2021/01/05 00:14:09;;;;;;;88.78;38.70;;;;;;;3.08;81.18;100153.08;2200305;80;27817;-60
2021/01/05 00:17:15;;;;;;;92.75;39.70;;;;;;;3.08;81.33;100149.11;2082899;81;27714;-66
2021/01/05 00:20:25;;;;;;;86.87;35.85;;;;;;;3.07;81.22;100156.63;2193191;80;28153;-62
2021/01/05 00:23:27;;;;;;;90.42;37.80;;;;;;;3.07;81.24;100152.66;2117384;81;31913;-63
2021/01/05 00:26:30;;;;;;;83.10;35.10;;;;;;;3.04;81.19;100159.79;2175583;81;33127;-61
2021/01/05 00:29:32;;;;;;;89.07;36.20;;;;;;;3.07;81.33;100152.66;2151328;81;28188;-61
2021/01/05 00:32:34;;;;;;;83.92;37.15;;;;;;;3.11;81.33;100156.99;2149079;80;27640;-61
2021/01/05 00:35:39;;;;;;;90.38;40.17;;;;;;;3.13;81.32;100153.44;2166864;80;30517;-60
2021/01/05 00:38:41;;;;;;;67.83;29.53;;;;;;;3.15;81.32;100153.38;2133830;81;32104;-60
2021/01/05 00:41:44;;;;;;;83.03;34.67;;;;;;;3.15;81.25;100171.45;2149750;80;33861;-62
2021/01/05 00:44:46;;;;;;;92.37;39.95;;;;;;;3.12;81.21;100167.56;2137457;80;28867;-62
2021/01/05 00:47:49;;;;;;;101.07;41.90;;;;;;;3.10;81.21;100161.87;2144841;80;27638;-62
2021/01/05 00:50:51;;;;;;;88.72;36.38;;;;;;;3.09;81.34;100144.23;2144101;82;28873;-60
2021/01/05 00:53:53;;;;;;;71.90;33.13;;;;;;;3.10;81.24;100158.78;2147531;80;30928;-60
2021/01/05 00:57:05;;;;;;;90.83;38.10;;;;;;;3.08;81.19;100155.30;2157137;81;32868;-63
2021/01/05 01:00:12;;;;;;;81.85;35.58;;;;;;;3.07;81.12;100163.25;2151178;80;29341;-61
2021/01/05 01:03:14;;;;;;;84.40;34.95;;;;;;;3.06;81.23;100161.06;2127731;80;27715;-60
2021/01/05 01:06:18;;;;;;;87.45;36.08;;;;;;;3.10;81.37;100170.70;2163290;81;28702;-60
2021/01/05 01:09:20;;;;;;;93.85;37.38;;;;;;;3.10;81.28;100169.80;2143259;81;30958;-61
2021/01/05 01:12:25;;;;;;;83.10;36.08;;;;;;;3.10;81.28;100168.48;2143788;81;32940;-60
2021/01/05 01:15:27;;;;;;;96.63;36.88;;;;;;;3.08;81.24;100155.73;2152512;81;30316;-60
2021/01/05 01:18:29;;;;;;;76.00;33.33;;;;;;;3.09;81.31;100162.33;2126761;81;27711;-61
2021/01/05 01:21:31;;;;;;;81.78;34.13;;;;;;;3.09;81.22;100158.36;2143556;81;29804;-61
2021/01/05 01:24:33;;;;;;;79.75;34.23;;;;;;;3.12;81.22;100149.47;2112373;81;31013;-61
2021/01/05 01:27:35;;;;;;;80.50;34.73;;;;;;;3.09;81.18;100148.21;2109060;81;33024;-62
2021/01/05 01:30:37;;;;;;;86.87;34.58;;;;;;;3.07;81.21;100143.40;2090003;81;29906;-62
2021/01/05 01:33:40;;;;;;;83.75;34.00;;;;;;;3.05;81.23;100139.47;2096087;81;27675;-63
2021/01/05 01:36:42;;;;;;;81.78;37.65;;;;;;;3.01;81.22;100136.47;2133110;80;28717;-62
2021/01/05 01:39:46;;;;;;;92.22;37.75;;;;;;;2.99;81.25;100134.30;2152452;80;31961;-61
2021/01/05 01:42:48;;;;;;;69.85;31.77;;;;;;;2.98;81.27;100136.55;2184714;80;33347;-61
2021/01/05 01:45:53;;;;;;;80.47;33.78;;;;;;;2.95;81.41;100143.23;2145966;80;29290;-62
2021/01/05 01:48:55;;;;;;;76.20;33.15;;;;;;;2.91;81.36;100138.89;2156294;81;27710;-63
2021/01/05 01:51:57;;;;;;;76.97;34.40;;;;;;;2.87;81.27;100143.39;2147030;81;28590;-62
2021/01/05 01:55:13;;;;;;;70.05;30.85;;;;;;;2.83;81.36;100135.94;2183413;80;31556;-69
2021/01/05 01:58:49;;;;;;;66.53;30.02;;;;;;;2.83;81.48;100140.38;2171614;80;33214;-63
2021/01/05 02:02:00;;;;;;;66.73;31.40;;;;;;;2.81;81.55;100147.47;2193355;80;30191;-62
2021/01/05 02:05:16;;;;;;;60.75;29.23;;;;;;;2.77;81.45;100144.02;2147714;81;27608;-64
2021/01/05 02:08:46;;;;;;;72.85;31.33;;;;;;;2.71;81.50;100135.77;2163170;81;29272;-63
2021/01/05 02:12:28;;;;;;;64.67;30.70;;;;;;;2.70;81.52;100130.48;2146869;81;31169;-63
2021/01/05 02:16:00;;;;;;;73.95;32.67;;;;;;;2.72;81.59;100125.61;2157475;80;34709;-62
2021/01/05 02:19:37;;;;;;;70.12;32.73;;;;;;;2.79;81.57;100129.00;2168548;81;28659;-62
2021/01/05 02:23:11;;;;;;;65.83;30.33;;;;;;;2.88;81.48;100132.76;2335014;76;27674;-60
2021/01/05 02:26:45;;;;;;;63.75;28.90;;;;;;;2.84;81.48;100123.60;2186996;80;27805;-61
2021/01/05 02:30:05;;;;;;;72.73;32.17;;;;;;;2.85;81.46;100121.38;2233332;79;27727;-60
2021/01/05 02:33:30;;;;;;;68.87;32.85;;;;;;;2.80;81.46;100123.23;2158749;80;27686;-61
2021/01/05 02:37:07;;;;;;;77.87;34.18;;;;;;;2.83;81.61;100117.89;2159822;79;28820;-61
2021/01/05 02:40:36;;;;;;;72.90;30.50;;;;;;;2.88;81.63;100115.56;2158584;81;30940;-62
2021/01/05 02:44:01;;;;;;;74.47;31.27;;;;;;;2.93;81.50;100114.60;2187028;79;33663;-61
2021/01/05 02:47:41;;;;;;;68.30;30.52;;;;;;;2.96;81.40;100106.14;2180162;80;29317;-61
2021/01/05 02:51:12;;;;;;;67.78;29.12;;;;;;;3.03;81.52;100105.11;2182084;81;27899;-61
2021/01/05 02:54:57;;;;;;;65.50;29.37;;;;;;;3.13;81.38;100095.20;2250943;77;27645;-61
2021/01/05 02:58:30;;;;;;;74.70;31.68;;;;;;;3.10;81.39;100099.23;2182528;80;27671;-61
2021/01/05 03:02:23;;;;;;;80.40;32.80;;;;;;;3.10;81.27;100087.33;2181165;80;28410;-61
2021/01/05 03:05:25;;;;;;;69.72;30.97;;;;;;;3.07;81.19;100086.06;2187663;80;31570;-61
2021/01/05 03:08:29;;;;;;;75.15;32.42;;;;;;;3.08;81.24;100082.95;2204120;80;32925;-62
2021/01/05 03:11:48;;;;;;;68.75;31.93;;;;;;;3.06;81.27;100082.99;2160208;80;29304;-61
2021/01/05 03:15:14;;;;;;;71.12;32.98;;;;;;;3.08;81.34;100081.19;2194021;80;27594;-63
2021/01/05 03:18:37;;;;;;;73.85;33.48;;;;;;;3.15;81.52;100080.59;2142843;82;30194;-61
2021/01/05 03:21:43;;;;;;;81.12;33.33;;;;;;;3.20;81.40;100076.08;2095385;83;31904;-62
2021/01/05 03:24:46;;;;;;;82.10;35.70;;;;;;;3.24;81.35;100071.58;2122468;82;33109;-62
2021/01/05 03:28:05;;;;;;;88.93;36.20;;;;;;;3.27;81.25;100071.51;2335179;76;28078;-61
2021/01/05 03:31:27;;;;;;;83.60;35.13;;;;;;;3.19;81.22;100063.28;2235658;77;28639;-65
2021/01/05 03:34:29;;;;;;;80.75;35.60;;;;;;;3.17;81.21;100058.94;2214227;77;29540;-61
2021/01/05 03:37:31;;;;;;;85.50;36.20;;;;;;;3.16;81.28;100051.43;2176080;78;30907;-65
2021/01/05 03:40:33;;;;;;;83.85;35.28;;;;;;;3.16;81.21;100047.45;2219529;77;33315;-73
2021/01/05 03:43:35;;;;;;;77.92;35.33;;;;;;;3.19;81.37;100045.22;2208735;78;28605;-66
2021/01/05 03:46:38;;;;;;;84.42;35.73;;;;;;;3.18;81.22;100052.73;2202105;77;27744;-71
2021/01/05 03:49:40;;;;;;;82.10;33.67;;;;;;;3.15;81.30;100047.04;2200157;77;28685;-61
2021/01/05 03:52:42;;;;;;;71.85;31.42;;;;;;;3.14;81.31;100044.01;2214374;77;30891;-67
2021/01/05 03:55:44;;;;;;;71.62;31.70;;;;;;;3.11;81.28;100037.45;2264394;77;33662;-66
2021/01/05 03:58:47;;;;;;;61.95;30.48;;;;;;;3.02;81.21;100031.92;2227506;77;30249;-63
2021/01/05 04:01:53;;;;;;;68.45;33.00;;;;;;;3.05;81.32;100030.97;2190390;77;27669;-64
2021/01/05 04:04:55;;;;;;;64.85;30.17;;;;;;;3.03;81.31;100034.09;2219567;78;28814;-67
2021/01/05 04:07:58;;;;;;;66.75;31.07;;;;;;;3.02;81.42;100039.86;2189203;77;30955;-65
2021/01/05 04:10:59;;;;;;;63.78;29.30;;;;;;;3.02;81.46;100040.30;2196733;77;33283;-63
2021/01/05 04:14:02;;;;;;;58.65;30.10;;;;;;;3.03;81.42;100052.62;2209321;77;29238;-62
2021/01/05 04:17:04;;;;;;;56.18;28.15;;;;;;;2.98;81.36;100054.06;2236262;77;27623;-62
2021/01/05 04:20:08;;;;;;;57.62;28.65;;;;;;;2.96;81.37;100051.89;2214570;78;29253;-65
2021/01/05 04:23:10;;;;;;;52.83;27.52;;;;;;;2.92;81.35;100052.86;2201526;78;30791;-64
2021/01/05 04:26:13;;;;;;;54.70;26.52;;;;;;;2.90;81.43;100053.34;2206604;78;33638;-66
2021/01/05 04:29:16;;;;;;;51.60;25.72;;;;;;;2.87;81.36;100053.44;2214311;77;29284;-66
2021/01/05 04:32:18;;;;;;;50.55;25.55;;;;;;;2.87;81.43;100057.41;2245258;77;27629;-65
2021/01/05 04:35:22;;;;;;;46.88;24.95;;;;;;;2.85;81.44;100053.45;2212436;78;29549;-64
2021/01/05 04:38:24;;;;;;;52.95;26.93;;;;;;;2.80;81.33;100054.02;2179752;78;30931;-64
2021/01/05 04:41:27;;;;;;;45.03;24.47;;;;;;;2.72;81.39;100041.40;2230768;77;33115;-64
2021/01/05 04:44:33;;;;;;;48.63;24.90;;;;;;;2.78;81.43;100047.89;2286523;77;29806;-66
2021/01/05 04:48:02;;;;;;;56.73;26.90;;;;;;;2.75;81.42;100040.02;2230685;78;28280;-62
2021/01/05 04:51:29;;;;;;;51.13;24.87;;;;;;;2.75;81.45;100043.98;2298181;77;28801;-64
2021/01/05 04:54:46;;;;;;;47.00;24.72;;;;;;;2.76;81.50;100042.19;2270336;77;32279;-62
2021/01/05 04:57:51;;;;;;;49.27;25.45;;;;;;;2.75;81.43;100041.34;2252780;77;33662;-63
2021/01/05 05:00:54;;;;;;;;;;;;;;;2.74;81.43;100039.59;2223793;77;28042;-63
2021/01/05 05:04:30;;;;;;;47.88;25.20;;;;;;;2.72;81.42;100037.43;2230842;77;27661;-62
2021/01/05 05:08:15;;;;;;;50.67;25.90;;;;;;;2.72;81.49;100036.11;2243072;77;29327;-62
2021/01/05 05:11:21;;;;;;;51.48;26.55;;;;;;;2.74;81.54;100035.16;2247065;77;31148;-61
2021/01/05 05:14:38;;;;;;;48.92;24.65;;;;;;;2.68;81.47;100040.60;2266708;77;32890;-62
2021/01/05 05:18:03;;;;;;;52.20;26.12;;;;;;;2.65;81.46;100035.38;2265211;77;31162;-67
2021/01/05 05:21:26;;;;;;;48.92;25.95;;;;;;;2.68;81.52;100039.72;2220621;77;36873;-67
2021/01/05 05:24:59;;;;;;;47.00;25.85;;;;;;;2.67;81.50;100040.62;2257467;78;29735;-69
2021/01/05 05:28:12;;;;;;;47.05;24.90;;;;;;;2.68;81.57;100033.98;2233981;77;31312;-68
2021/01/05 05:31:19;;;;;;;56.48;28.23;;;;;;;2.68;81.56;100039.72;2251080;77;33101;-67
2021/01/05 05:34:38;;;;;;;54.08;27.50;;;;;;;2.67;81.60;100036.22;2225779;77;28633;-68
2021/01/05 05:38:05;;;;;;;51.55;26.37;;;;;;;2.68;81.61;100033.10;2240100;78;27586;-68
2021/01/05 05:45:34;;;;;;;51.40;25.88;;;;;;;2.63;81.46;100030.56;2076874;84;32641;-68
2021/01/05 05:49:07;;;;;;;48.43;25.77;;;;;;;2.69;81.56;100022.51;2247934;77;28130;-65
2021/01/05 05:52:21;;;;;;;45.08;24.30;;;;;;;2.65;81.57;100027.91;2144961;79;27898;-62
2021/01/05 05:56:00;;;;;;;53.23;26.53;;;;;;;2.71;81.62;100023.78;2241735;77;28073;-66
2021/01/05 05:59:04;;;;;;;47.40;25.65;;;;;;;2.67;81.56;100024.31;2207675;80;28013;-68
2021/01/05 06:02:08;;;;;;;51.20;26.25;;;;;;;2.62;81.45;100026.64;2141465;80;29554;-64
2021/01/05 06:05:31;;;;;;;52.53;26.97;;;;;;;2.61;81.50;100023.11;2100250;81;30975;-61
2021/01/05 06:08:34;;;;;;;46.95;25.68;;;;;;;2.60;81.52;100020.05;2151451;80;33088;-67
2021/01/05 06:11:37;;;;;;;47.60;25.48;;;;;;;2.63;81.56;100014.70;2136527;80;28119;-62
2021/01/05 06:14:40;;;;;;;46.20;25.20;;;;;;;2.67;81.57;100017.70;2139039;80;27629;-63
2021/01/05 06:17:43;;;;;;;47.90;25.80;;;;;;;2.68;81.48;100018.55;2115749;81;28556;-62
2021/01/05 06:20:46;;;;;;;44.80;24.05;;;;;;;2.70;81.45;100021.61;2148247;80;31616;-64
2021/01/05 06:23:49;;;;;;;44.67;24.43;;;;;;;2.70;81.39;100017.64;2149792;81;33214;-70
2021/01/05 06:26:51;;;;;;;43.68;23.77;;;;;;;2.70;81.37;100020.72;2141163;81;28643;-62
2021/01/05 06:29:54;;;;;;;46.98;24.52;;;;;;;2.67;81.35;100015.06;2179843;80;27847;-69
2021/01/05 06:32:56;;;;;;;42.33;23.05;;;;;;;2.65;81.38;100011.57;2160913;81;28831;-65
2021/01/05 06:35:59;;;;;;;44.45;22.45;;;;;;;2.66;81.41;100011.10;2126488;80;31058;-70
2021/01/05 06:39:03;;;;;;;44.60;23.70;;;;;;;2.70;81.42;100014.11;2179360;80;33608;-62
2021/01/05 06:42:06;;;;;;;38.05;22.30;;;;;;;2.72;81.45;100003.94;2149460;81;28742;-61
2021/01/05 06:45:12;;;;;;;42.80;24.85;;;;;;;2.78;81.46;99999.39;2124301;81;27627;-68
2021/01/05 06:48:15;;;;;;;49.53;26.48;;;;;;;2.77;81.28;99998.53;2142403;81;29558;-65
2021/01/05 06:51:18;;;;;;;45.80;24.60;;;;;;;2.80;81.27;99997.59;2097504;81;30943;-66
2021/01/05 06:54:21;;;;;;;55.58;29.35;;;;;;;2.82;81.29;100000.60;2135247;80;33141;-64
2021/01/05 06:57:24;;;;;;;40.52;22.05;;;;;;;2.83;81.25;100006.31;2171750;80;28999;-64
2021/01/05 07:00:29;;;;;;;42.80;21.95;;;;;;;2.83;81.15;100006.31;2164851;80;27723;-63
2021/01/05 07:03:31;;;;;;;41.45;22.27;;;;;;;2.80;81.12;100006.41;2144034;80;28883;-67
2021/01/05 07:06:33;;;;;;;37.98;21.25;;;;;;;2.78;81.04;100004.25;2128528;80;30841;-62
2021/01/05 07:09:36;;;;;;;41.60;23.70;;;;;;;2.77;81.17;100010.88;2158979;81;32924;-60
2021/01/05 07:12:38;;;;;;;44.58;24.43;;;;;;;2.81;81.13;100021.38;2138294;80;29669;-60
2021/01/05 07:15:42;;;;;;;48.30;25.92;;;;;;;2.84;81.23;100012.48;2126587;80;28120;-61
2021/01/05 07:18:47;;;;;;;48.20;25.45;;;;;;;2.88;81.17;100011.52;2197078;80;28105;-62
2021/01/05 07:21:49;;;;;;;45.03;25.43;;;;;;;2.89;81.19;100003.54;2160838;80;30936;-61
2021/01/05 07:24:52;;;;;;;51.30;26.23;;;;;;;2.95;81.23;100006.95;2136290;81;32954;-61
2021/01/05 07:27:54;;;;;;;55.78;28.35;;;;;;;2.94;81.13;100008.72;2148604;81;28143;-61
2021/01/05 07:30:56;;;;;;;51.80;27.90;;;;;;;2.92;81.06;99999.94;2138745;80;27654;-60
2021/01/05 07:33:58;;;;;;;55.70;27.73;;;;;;;2.92;81.18;100001.73;2145601;81;29123;-61
2021/01/05 07:37:02;;;;;;;58.73;29.15;;;;;;;2.91;81.10;99999.52;2145637;80;31615;-61
2021/01/05 07:40:07;;;;;;;54.08;27.80;;;;;;;2.91;81.20;99998.66;2143565;81;33518;-61
2021/01/05 07:43:10;;;;;;;45.70;24.60;;;;;;;2.88;81.10;99999.62;2181463;80;29690;-62
2021/01/05 07:46:12;;;;;;;52.08;25.82;;;;;;;2.85;81.00;99997.89;2161056;80;27775;-62
2021/01/05 07:49:16;;;;;;;47.53;26.42;;;;;;;2.83;81.09;99998.38;2149464;81;28836;-61
2021/01/05 07:52:36;;;;;;;45.63;25.33;;;;;;;2.84;81.20;99995.30;2188197;80;31220;-62
2021/01/05 07:55:39;;;;;;;45.05;23.77;;;;;;;2.84;81.21;99992.18;2160804;79;32928;-64
2021/01/05 07:58:42;;;;;;;46.13;23.92;;;;;;;2.87;81.26;99993.91;2158453;79;28601;-61
2021/01/05 08:01:46;;;;;;;43.78;23.60;;;;;;;2.88;81.23;99987.71;2147552;79;27759;-61
2021/01/05 08:04:48;;;;;;;44.65;23.32;;;;;;;2.83;81.17;99991.77;2113984;81;28627;-60
2021/01/05 08:07:51;;;;;;;46.10;24.27;;;;;;;2.83;81.17;99994.88;2144845;79;30771;-60
2021/01/05 08:10:55;;;;;;;42.17;22.95;;;;;;;2.84;81.25;99989.53;2165438;79;33996;-61
2021/01/05 08:13:57;;;;;;;46.35;25.20;;;;;;;2.86;81.21;99978.47;2123619;79;28627;-60
2021/01/05 08:16:59;;;;;;;46.28;25.00;;;;;;;2.89;81.17;99983.70;2206995;79;27702;-61
2021/01/05 08:20:06;;;;;;;82.15;38.02;;;;;;;2.88;81.13;99981.95;2157893;81;28667;-64
2021/01/05 08:23:08;;;;;;;;;;;;;;;2.86;81.12;99977.14;2165608;79;31165;-64
2021/01/05 08:26:12;;;;;;;54.10;29.00;;;;;;;2.84;81.05;99982.06;2139801;79;33222;-66
2021/01/05 08:29:14;;;;;;;44.08;26.60;;;;;;;2.81;81.24;99973.76;2159343;79;28957;-63
2021/01/05 08:32:17;;;;;;;40.92;21.45;;;;;;;2.82;81.28;99971.97;2127546;81;27679;-67
2021/01/05 08:35:22;;;;;;;40.50;22.62;;;;;;;2.80;81.20;99973.34;2185079;79;28837;-65
2021/01/05 08:38:25;;;;;;;39.20;20.80;;;;;;;2.80;81.28;99970.70;2164657;79;32416;-63
2021/01/05 08:41:28;;;;;;;58.80;30.60;;;;;;;2.79;81.14;99961.45;2174635;79;33278;-66
2021/01/05 08:44:30;;;;;;;50.83;29.77;;;;;;;2.80;81.19;99958.79;2139113;81;29106;-65
2021/01/05 08:47:33;;;;;;;34.78;22.55;;;;;;;2.80;80.99;99968.48;2138405;81;27740;-60
2021/01/05 08:50:36;;;;;;;39.85;23.32;;;;;;;2.82;81.12;99968.00;2148191;79;28579;-64
2021/01/05 08:53:38;;;;;;;37.33;21.57;;;;;;;2.83;81.10;99959.16;2154169;81;31831;-64
2021/01/05 08:56:41;;;;;;;36.75;21.07;;;;;;;2.83;81.12;99961.34;2132683;81;33255;-63
2021/01/05 08:59:48;;;;;;;33.78;20.72;;;;;;;2.84;81.07;99961.75;2121223;81;29729;-61
2021/01/05 09:02:50;;;;;;;34.58;19.70;;;;;;;2.82;80.98;99957.42;2163263;81;27865;-60
2021/01/05 09:05:53;;;;;;;36.53;19.85;;;;;;;2.79;80.87;99958.80;2177022;80;30232;-66
2021/01/05 09:08:56;;;;;;;33.25;19.95;;;;;;;2.77;81.01;99956.20;2185422;80;31147;-64
2021/01/05 09:12:00;;;;;;;30.68;17.75;;;;;;;2.76;81.00;99956.22;2157143;80;33108;-64
2021/01/05 09:15:05;;;;;;;28.50;15.63;;;;;;;2.75;80.97;99955.37;2174131;81;28924;-63
2021/01/05 09:18:08;;;;;;;27.15;16.48;;;;;;;2.78;81.05;99956.63;2132767;81;27666;-63
2021/01/05 09:21:11;;;;;;;31.60;18.37;;;;;;;2.84;81.19;99949.85;2190095;80;28855;-64
2021/01/05 09:24:14;;;;;;;32.95;16.60;;;;;;;2.91;81.11;99949.72;2180902;81;30912;-63
2021/01/05 09:27:17;;;;;;;23.77;15.40;;;;;;;2.93;80.92;99942.62;2133978;80;32986;-65
2021/01/05 09:30:21;;;;;;;29.85;17.40;;;;;;;2.97;80.92;99941.64;2194775;80;29808;-62
2021/01/05 09:33:24;;;;;;;39.45;23.83;;;;;;;2.95;80.74;99934.20;2143909;80;28304;-62
2021/01/05 09:36:35;;;;;;;34.43;19.45;;;;;;;2.96;80.85;99939.91;2170017;80;29215;-59
2021/01/05 09:39:37;;;;;;;22.52;15.58;;;;;;;2.98;80.81;99938.09;2175280;81;31120;-60
2021/01/05 09:42:40;;;;;;;23.12;13.10;;;;;;;3.01;80.84;99932.70;2139508;81;32978;-63
2021/01/05 09:45:45;;;;;;;22.02;12.50;;;;;;;3.02;80.73;99929.16;2162684;80;28860;-60
2021/01/05 09:48:48;;;;;;;25.12;13.95;;;;;;;3.07;80.74;99925.95;2169635;80;27733;-61
2021/01/05 09:51:50;;;;;;;25.05;14.23;;;;;;;3.11;80.58;99928.05;2137653;80;28822;-59
2021/01/05 09:54:53;;;;;;;22.42;13.62;;;;;;;3.13;80.60;99916.55;2165294;80;31149;-63
2021/01/05 09:57:56;;;;;;;21.85;12.93;;;;;;;3.17;80.44;99916.00;2101956;83;34405;-68
2021/01/05 10:00:58;;;;;;;35.98;18.23;;;;;;;3.15;80.25;99913.84;2083305;83;28869;-62
2021/01/05 10:04:01;;;;;;;26.17;15.83;;;;;;;3.12;80.11;99908.19;2120670;83;27555;-64
2021/01/05 10:07:04;;;;;;;24.98;17.48;;;;;;;3.05;80.00;99909.23;2071701;81;29524;-59
2021/01/05 10:10:12;;;;;;;23.98;13.60;;;;;;;3.03;80.16;99900.46;2050624;84;30962;-62
2021/01/05 10:13:14;;;;;;;25.92;13.80;;;;;;;2.97;80.12;99900.16;2107893;83;34055;-61
2021/01/05 10:16:17;;;;;;;21.73;14.23;;;;;;;2.93;79.96;99898.97;2062475;83;28902;-60
2021/01/05 10:19:20;;;;;;;23.22;13.68;;;;;;;2.92;80.21;99897.22;2100553;83;28250;-60
2021/01/05 10:22:43;;;;;;;23.00;14.20;;;;;;;2.92;80.25;99895.43;2071808;83;30183;-64
2021/01/05 10:25:47;;;;;;;27.62;15.88;;;;;;;2.92;80.23;99899.40;2041106;86;31243;-61
2021/01/05 10:28:50;;;;;;;28.00;15.93;;;;;;;2.89;80.20;99896.86;2030705;85;33556;-65
2021/01/05 10:31:53;;;;;;;23.95;13.00;;;;;;;2.88;80.24;99888.03;2019766;86;29588;-60
2021/01/05 10:34:55;;;;;;;24.45;15.48;;;;;;;2.84;80.17;99893.45;2017960;86;27752;-59
2021/01/05 10:37:57;;;;;;;24.43;15.05;;;;;;;2.81;80.20;99890.86;2018155;88;28564;-60
2021/01/05 10:41:00;;;;;;;25.12;13.78;;;;;;;2.79;80.34;99879.02;2075991;84;31164;-59
2021/01/05 10:44:03;;;;;;;20.95;13.13;;;;;;;2.82;80.36;99884.20;2074173;84;33349;-59
2021/01/05 10:47:07;;;;;;;22.07;13.05;;;;;;;2.84;80.32;99884.19;2026483;87;29577;-64
2021/01/05 10:50:14;;;;;;;22.57;13.63;;;;;;;2.85;80.26;99878.84;2055158;84;27779;-59
2021/01/05 10:53:18;;;;;;;24.55;14.63;;;;;;;2.86;80.30;99881.05;2048154;86;29351;-59
2021/01/05 10:56:20;;;;;;;27.17;16.45;;;;;;;2.86;80.26;99877.94;2069243;84;32042;-61
2021/01/05 10:59:23;;;;;;;27.30;15.80;;;;;;;2.84;80.22;99876.25;2149631;82;32991;-58
2021/01/05 11:02:26;;;;;;;33.00;18.45;;;;;;;2.81;80.24;99871.91;2148602;82;29270;-60
2021/01/05 11:05:28;;;;;;;31.35;18.55;;;;;;;2.78;80.25;99866.69;2060841;84;27781;-61
2021/01/05 11:08:30;;;;;;;45.88;22.42;;;;;;;2.78;80.33;99861.84;2046942;85;28903;-60
2021/01/05 11:11:33;;;;;;;43.50;23.80;;;;;;;2.76;80.34;99864.53;2035797;86;31688;-60
2021/01/05 11:14:36;;;;;;;34.23;18.15;;;;;;;2.73;80.33;99857.52;2088591;84;34052;-62
2021/01/05 11:17:39;;;;;;;33.58;19.00;;;;;;;2.71;80.40;99856.72;2060672;86;29266;-65
2021/01/05 11:20:42;;;;;;;26.35;16.82;;;;;;;2.75;80.38;99857.50;2029960;85;27678;-58
2021/01/05 11:23:45;;;;;;;30.82;17.42;;;;;;;2.77;80.17;99852.16;2045057;84;28596;-59
2021/01/05 11:26:49;;;;;;;30.92;18.30;;;;;;;2.78;80.30;99849.94;2082862;84;30755;-60
2021/01/05 11:29:52;;;;;;;32.87;19.47;;;;;;;2.78;80.10;99849.50;2073107;83;33134;-58
2021/01/05 11:32:54;;;;;;;32.75;18.50;;;;;;;2.76;79.96;99841.16;2065239;83;30153;-60
2021/01/05 11:35:57;;;;;;;31.12;18.95;;;;;;;2.74;80.03;99838.57;2130268;83;27750;-58
2021/01/05 11:38:59;;;;;;;34.63;18.15;;;;;;;2.73;79.99;99840.80;2091497;83;28924;-65
2021/01/05 11:42:04;;;;;;;32.03;18.73;;;;;;;2.71;79.95;99837.31;2089710;83;30935;-71
2021/01/05 11:45:10;;;;;;;27.60;17.77;;;;;;;2.70;80.08;99832.94;2076651;83;33086;-64
2021/01/05 11:48:12;;;;;;;29.27;18.80;;;;;;;2.70;80.02;99833.82;2105683;83;29158;-64
2021/01/05 11:51:27;;;;;;;28.32;16.35;;;;;;;2.71;80.08;99828.95;2077412;83;27728;-69
2021/01/05 11:54:29;;;;;;;26.87;16.07;;;;;;;2.74;80.05;99825.34;2129696;83;28834;-67
2021/01/05 11:57:32;;;;;;;31.35;18.05;;;;;;;2.80;80.01;99821.23;2105888;83;31293;-67
2021/01/05 12:00:36;;;;;;;40.60;28.17;;;;;;;2.82;79.85;99819.39;2076164;83;32899;-68
2021/01/05 12:03:41;;;;;;;32.83;22.37;;;;;;;2.85;79.78;99811.85;2048436;83;28954;-66
2021/01/05 12:06:50;;;;;;;25.77;16.10;;;;;;;2.87;79.76;99810.89;2083329;83;27756;-65
2021/01/05 12:09:56;;;;;;;25.10;15.45;;;;;;;2.88;79.63;99820.57;2111160;83;28830;-66
2021/01/05 12:12:59;;;;;;;28.10;16.23;;;;;;;2.88;79.56;99818.39;2057176;83;32142;-66
2021/01/05 12:16:01;;;;;;;27.10;16.67;;;;;;;2.89;79.47;99818.81;2048314;83;33135;-60
2021/01/05 12:19:08;;;;;;;29.37;17.60;;;;;;;2.88;79.43;99809.13;2116381;83;29733;-62
2021/01/05 12:22:11;;;;;;;37.85;19.32;;;;;;;2.87;79.43;99806.92;2084926;84;27734;-64
2021/01/05 12:25:14;;;;;;;31.77;17.73;;;;;;;2.86;79.21;99808.30;2039959;85;28578;-57
2021/01/05 12:28:17;;;;;;;30.95;17.80;;;;;;;2.80;79.15;99805.36;1990071;86;30938;-59
2021/01/05 12:31:20;;;;;;;33.48;19.30;;;;;;;2.79;79.14;99800.09;2024334;86;34811;-64
2021/01/05 12:34:27;;;;;;;59.40;38.55;;;;;;;2.80;79.21;99801.83;2059504;86;30117;-61
2021/01/05 12:37:29;;;;;;;38.38;21.42;;;;;;;2.82;79.28;99807.48;2074981;85;27660;-57
2021/01/05 12:40:32;;;;;;;32.88;22.35;;;;;;;2.85;79.26;99802.13;2036271;85;28932;-64
2021/01/05 12:43:35;;;;;;;37.67;24.02;;;;;;;2.87;79.19;99803.42;2076597;85;30491;-59
2021/01/05 12:46:39;;;;;;;36.48;23.92;;;;;;;2.88;79.16;99799.88;2012212;87;32844;-57
2021/01/05 12:49:41;;;;;;;39.73;26.68;;;;;;;2.88;79.09;99800.73;1979835;87;28964;-58
2021/01/05 12:52:47;;;;;;;36.10;26.05;;;;;;;2.88;79.05;99801.20;1994656;86;27879;-58
2021/01/05 12:55:48;;;;;;;40.03;25.52;;;;;;;2.87;78.99;99805.60;2049508;85;29843;-58
2021/01/05 12:58:51;;;;;;;41.13;26.12;;;;;;;2.86;78.93;99802.55;2000015;85;32117;-57
2021/01/05 13:01:58;;;;;;;37.93;22.65;;;;;;;2.84;78.88;99799.53;2087525;84;34042;-58
2021/01/05 13:05:01;;;;;;;44.58;23.42;;;;;;;2.83;78.83;99801.30;2081526;85;30175;-58
2021/01/05 13:08:04;;;;;;;41.42;22.00;;;;;;;2.83;78.87;99798.65;2031240;85;27728;-58
2021/01/05 13:11:10;;;;;;;31.35;21.42;;;;;;;2.87;78.83;99799.45;2030873;85;28670;-59
2021/01/05 13:14:14;;;;;;;37.80;24.12;;;;;;;2.88;78.77;99799.41;2027963;85;31690;-58
2021/01/05 13:17:16;;;;;;;40.08;24.57;;;;;;;2.89;78.74;99800.30;2035905;85;32921;-58
2021/01/05 13:20:19;;;;;;;34.38;24.40;;;;;;;2.92;78.83;99805.48;2079444;85;29661;-58
2021/01/05 13:23:21;;;;;;;39.10;23.35;;;;;;;2.94;78.78;99794.87;2021971;85;27838;-59
2021/01/05 13:26:24;;;;;;;32.08;23.45;;;;;;;2.94;78.69;99802.34;2083458;84;28902;-58
2021/01/05 13:29:30;;;;;;;41.18;25.68;;;;;;;2.92;78.60;99797.54;2028540;85;31277;-59
2021/01/05 13:32:34;;;;;;;32.48;24.23;;;;;;;2.94;78.62;99802.81;2057672;85;35033;-58
2021/01/05 13:35:42;;;;;;;36.83;28.35;;;;;;;2.90;78.57;99799.35;1998982;87;29241;-58
2021/01/05 13:38:45;;;;;;;35.40;25.45;;;;;;;2.88;78.45;99802.52;1998414;87;27750;-58
2021/01/05 13:41:47;;;;;;;31.57;20.55;;;;;;;2.85;78.51;99795.98;1995757;85;28826;-58
2021/01/05 13:44:51;;;;;;;36.40;22.48;;;;;;;2.84;78.43;99796.89;2053601;85;30969;-58
2021/01/05 13:47:54;;;;;;;40.85;25.05;;;;;;;2.84;78.49;99799.53;2076434;85;33128;-57
2021/01/05 13:50:56;;;;;;;29.30;18.50;;;;;;;2.84;78.52;99793.77;2054211;85;29182;-58
2021/01/05 13:54:02;;;;;;;37.88;26.25;;;;;;;2.86;78.55;99795.92;2075939;85;27848;-58
2021/01/05 13:57:05;;;;;;;33.23;22.30;;;;;;;2.88;78.52;99794.58;2009382;85;28835;-58
2021/01/05 14:00:10;;;;;;;35.45;22.02;;;;;;;2.87;78.45;99795.49;2052895;85;32126;-58
2021/01/05 14:03:12;;;;;;;36.55;22.90;;;;;;;2.85;78.40;99793.33;2031695;87;33061;-59
2021/01/05 14:06:30;;;;;;;43.08;25.82;;;;;;;2.81;78.37;99792.55;2019541;87;29171;-59
2021/01/05 14:09:47;;;;;;;48.48;29.63;;;;;;;2.78;78.45;99787.34;1998550;87;28113;-59
2021/01/05 14:12:52;;;;;;;69.50;32.50;;;;;;;2.77;78.39;99790.00;1925269;91;28855;-58
2021/01/05 14:15:56;;;;;;;80.35;38.95;;;;;;;2.74;78.43;99793.61;1927887;90;31405;-59
2021/01/05 14:18:58;;;;;;;121.80;55.33;;;;;;;2.60;78.53;99768.83;1925681;90;32940;-61
2021/01/05 14:22:01;;;;;;;63.52;33.42;;;;;;;2.72;78.34;99791.45;1926173;90;29903;-58
2021/01/05 14:25:05;;;;;;;42.70;24.80;;;;;;;2.71;78.37;99789.72;1955159;90;27739;-58
2021/01/05 14:28:08;;;;;;;37.03;23.95;;;;;;;2.71;78.42;99781.34;1955187;90;28633;-58
2021/01/05 14:31:14;;;;;;;36.15;24.12;;;;;;;2.72;78.44;99785.73;1935222;90;32588;-64
2021/01/05 14:34:19;;;;;;;35.03;22.42;;;;;;;2.73;78.45;99783.47;1912611;90;32893;-58
2021/01/05 14:37:22;;;;;;;32.35;19.05;;;;;;;2.72;78.31;99780.87;1934531;90;30379;-59
2021/01/05 14:40:25;;;;;;;28.15;18.52;;;;;;;2.69;78.30;99775.66;1937447;90;27793;-59
2021/01/05 14:43:27;;;;;;;38.60;23.65;;;;;;;2.64;78.31;99773.61;1986176;87;29527;-59